Time;durP1;ratioP1;P1;durP2;ratioP2;P2;SDS_P1;SDS_P2;PMS_P1;PMS_P2;Temp;Humidity;BMP_temperature;BMP_pressure;BME280_temperature;BME280_humidity;BME280_pressure;Samples;Min_cycle;Max_cycle;Signal;HPM_P1;HPM_P2
2022/12/12 00:00:21;;;;;;;0.93;0.53;;;5.00;91.40;;;;;;4949313;28;20293;-73
2022/12/12 00:02:47;;;;;;;0.70;0.53;;;5.00;91.30;;;;;;4949231;28;20198;-74
2022/12/12 00:05:16;;;;;;;0.57;0.57;;;5.00;91.20;;;;;;4955890;28;21078;-73
2022/12/12 00:07:42;;;;;;;0.60;0.60;;;5.10;91.20;;;;;;4952791;28;20187;-73
2022/12/12 00:10:08;;;;;;;0.40;0.40;;;5.10;91.30;;;;;;4952699;28;20194;-74
2022/12/12 00:12:34;;;;;;;0.67;0.67;;;5.10;91.20;;;;;;4937713;28;20750;-75
2022/12/12 00:14:59;;;;;;;0.63;0.63;;;5.10;91.30;;;;;;4949999;28;20182;-73
2022/12/12 00:17:25;;;;;;;0.70;0.70;;;5.10;91.20;;;;;;4953574;28;20213;-74
2022/12/12 00:19:51;;;;;;;1.07;0.60;;;5.10;91.30;;;;;;4948127;28;20325;-75
2022/12/12 00:22:17;;;;;;;0.30;0.30;;;5.10;91.30;;;;;;4949202;28;20178;-74
2022/12/12 00:24:43;;;;;;;0.60;0.50;;;5.10;91.20;;;;;;4950867;28;20183;-74
2022/12/12 00:27:08;;;;;;;0.50;0.50;;;5.20;91.10;;;;;;4952783;28;20258;-75
2022/12/12 00:29:34;;;;;;;0.40;0.40;;;5.20;91.10;;;;;;4953984;28;20183;-76
2022/12/12 00:32:00;;;;;;;0.70;0.47;;;5.20;91.00;;;;;;4947657;28;20266;-74
2022/12/12 00:34:26;;;;;;;0.50;0.50;;;5.20;90.80;;;;;;4957744;28;20197;-74
2022/12/12 00:36:51;;;;;;;0.80;0.80;;;5.20;90.60;;;;;;4951267;28;20301;-75
2022/12/12 00:39:18;;;;;;;0.50;0.50;;;5.20;90.70;;;;;;4952305;28;20207;-75
2022/12/12 00:41:44;;;;;;;1.03;0.57;;;5.20;90.50;;;;;;4944091;28;20234;-75
2022/12/12 00:44:10;;;;;;;0.60;0.60;;;5.20;90.50;;;;;;4946473;28;20191;-75
2022/12/12 00:46:36;;;;;;;0.30;0.30;;;5.10;90.40;;;;;;4955115;28;20210;-74
2022/12/12 00:49:01;;;;;;;0.50;0.50;;;5.10;90.30;;;;;;4956643;28;20558;-75
2022/12/12 00:51:28;;;;;;;0.73;0.73;;;5.10;90.20;;;;;;4953573;28;20191;-75
2022/12/12 00:53:54;;;;;;;0.70;0.70;;;5.10;90.20;;;;;;4931194;28;20245;-73
2022/12/12 00:56:21;;;;;;;0.50;0.50;;;5.10;90.10;;;;;;4956628;28;20180;-73
2022/12/12 00:58:48;;;;;;;1.17;0.80;;;5.00;90.20;;;;;;4957766;28;20209;-73
2022/12/12 01:01:18;;;;;;;0.47;0.47;;;5.00;90.30;;;;;;4952107;28;20567;-73
2022/12/12 01:03:44;;;;;;;0.43;0.43;;;5.00;90.20;;;;;;4947941;28;20193;-73
2022/12/12 01:06:10;;;;;;;0.67;0.63;;;5.00;90.30;;;;;;4955080;28;20203;-74
2022/12/12 01:08:37;;;;;;;0.40;0.40;;;5.00;90.50;;;;;;4957604;28;20178;-74
2022/12/12 01:11:05;;;;;;;0.70;0.70;;;5.00;90.50;;;;;;4939330;28;20194;-74
2022/12/12 01:13:30;;;;;;;0.70;0.70;;;5.00;90.50;;;;;;4952144;28;20198;-74
2022/12/12 01:15:56;;;;;;;0.83;0.70;;;5.00;90.50;;;;;;4955996;28;20185;-74
2022/12/12 01:18:22;;;;;;;0.60;0.60;;;5.10;90.60;;;;;;4952540;28;20214;-73
2022/12/12 01:20:48;;;;;;;0.47;0.47;;;5.10;90.70;;;;;;4957022;28;21310;-74
2022/12/12 01:23:14;;;;;;;0.37;0.37;;;5.10;90.70;;;;;;4954912;28;20694;-74
2022/12/12 01:25:40;;;;;;;0.70;0.70;;;5.10;91.00;;;;;;4951133;28;20183;-74
2022/12/12 01:28:06;;;;;;;0.60;0.60;;;5.20;90.90;;;;;;4953156;28;20205;-74
2022/12/12 01:30:32;;;;;;;3.90;0.80;;;5.10;90.70;;;;;;4953478;28;20740;-72
2022/12/12 01:32:57;;;;;;;0.90;0.70;;;5.10;90.70;;;;;;4953237;28;21120;-73
2022/12/12 01:35:23;;;;;;;1.23;1.10;;;5.10;90.70;;;;;;4954760;28;20265;-74
2022/12/12 01:37:49;;;;;;;3.70;1.00;;;5.10;90.70;;;;;;4954663;28;20260;-74
2022/12/12 01:40:19;;;;;;;1.33;1.13;;;5.10;90.70;;;;;;4952588;28;20198;-74
2022/12/12 01:42:45;;;;;;;1.83;1.30;;;5.10;90.70;;;;;;4953756;28;20191;-74
2022/12/12 01:45:48;;;;;;;2.40;1.40;;;5.10;90.80;;;;;;4951733;28;20191;-73
2022/12/12 01:48:14;;;;;;;1.30;1.30;;;5.00;90.40;;;;;;4950325;28;20199;-74
2022/12/12 01:50:42;;;;;;;1.73;1.63;;;5.00;90.30;;;;;;4953605;28;20339;-75
2022/12/12 01:53:08;;;;;;;3.20;1.10;;;5.00;90.10;;;;;;4952566;28;20584;-74
2022/12/12 01:55:34;;;;;;;3.37;1.70;;;4.90;90.40;;;;;;4952038;28;20182;-74
2022/12/12 01:58:00;;;;;;;1.40;1.30;;;4.90;90.60;;;;;;4951941;28;20187;-74
2022/12/12 02:00:26;;;;;;;1.70;1.60;;;4.90;90.60;;;;;;4955502;28;20214;-74
2022/12/12 02:02:54;;;;;;;1.27;1.27;;;4.80;90.60;;;;;;4958790;28;20191;-74
2022/12/12 02:05:26;;;;;;;1.97;1.53;;;4.80;90.40;;;;;;4950904;28;20209;-72
2022/12/12 02:07:53;;;;;;;1.47;1.20;;;4.70;90.40;;;;;;4957371;28;20273;-74
2022/12/12 02:10:19;;;;;;;1.47;1.47;;;4.70;90.60;;;;;;4954761;28;20653;-74
2022/12/12 02:12:45;;;;;;;1.63;1.23;;;4.70;90.40;;;;;;4954270;28;20198;-73
2022/12/12 02:15:12;;;;;;;1.57;1.47;;;4.60;90.30;;;;;;4951197;28;20197;-74
2022/12/12 02:18:10;;;;;;;1.37;1.27;;;4.60;90.20;;;;;;4954007;28;20190;-75
2022/12/12 02:20:44;;;;;;;1.50;1.10;;;4.50;90.20;;;;;;4952546;28;20210;-74
2022/12/12 02:23:28;;;;;;;1.33;1.23;;;4.50;90.30;;;;;;4950845;28;20197;-74
2022/12/12 02:26:29;;;;;;;1.70;1.10;;;4.40;90.20;;;;;;4937222;28;20266;-74
2022/12/12 02:29:13;;;;;;;1.63;1.53;;;4.40;90.50;;;;;;4951533;28;20804;-74
2022/12/12 02:31:59;;;;;;;1.20;1.20;;;4.40;90.60;;;;;;4951564;28;20186;-74
2022/12/12 02:34:39;;;;;;;1.20;1.20;;;4.30;90.50;;;;;;4951597;28;20237;-74
2022/12/12 02:37:11;;;;;;;2.13;1.93;;;4.20;90.40;;;;;;4954520;28;20225;-73
2022/12/12 02:40:06;;;;;;;1.10;1.10;;;4.20;90.40;;;;;;4956750;28;20219;-74
2022/12/12 02:42:49;;;;;;;1.10;1.03;;;4.10;90.40;;;;;;4887896;29;20249;-74
2022/12/12 02:45:23;;;;;;;0.97;0.90;;;4.00;90.40;;;;;;4886434;29;20285;-73
2022/12/12 02:48:12;;;;;;;1.33;1.33;;;4.00;90.60;;;;;;4882185;29;20205;-73
2022/12/12 02:50:40;;;;;;;0.80;0.80;;;4.00;90.50;;;;;;4882146;29;20750;-73
2022/12/12 02:53:05;;;;;;;0.90;0.90;;;3.90;90.50;;;;;;4878326;29;20193;-73
2022/12/12 02:55:31;;;;;;;1.13;1.13;;;3.90;90.60;;;;;;4883190;29;20193;-74
2022/12/12 02:57:57;;;;;;;0.80;0.80;;;3.80;91.00;;;;;;4886664;29;20200;-74
2022/12/12 03:00:23;;;;;;;1.63;1.43;;;3.80;91.60;;;;;;4885477;29;20209;-73
2022/12/12 03:09:12;;;;;;;1.07;0.97;;;3.60;91.60;;;;;;4887119;29;20209;-74
2022/12/12 03:12:00;;;;;;;1.17;1.17;;;3.50;91.30;;;;;;4888042;29;20264;-74
2022/12/12 03:15:14;;;;;;;2.57;1.67;;;3.50;91.50;;;;;;4886280;29;20305;-73
2022/12/12 03:18:14;;;;;;;1.47;1.47;;;3.50;91.80;;;;;;4866921;29;20624;-74
2022/12/12 03:20:49;;;;;;;1.37;1.30;;;3.50;91.80;;;;;;4866680;29;20341;-74
2022/12/12 03:23:20;;;;;;;1.57;1.57;;;3.40;91.60;;;;;;4865970;29;20193;-74
2022/12/12 03:26:09;;;;;;;1.57;1.47;;;3.40;91.60;;;;;;4865873;29;20273;-74
2022/12/12 03:28:54;;;;;;;1.10;1.10;;;3.40;91.80;;;;;;4865073;29;20209;-74
2022/12/12 03:31:25;;;;;;;1.03;1.03;;;3.40;92.40;;;;;;4865770;29;20391;-73
2022/12/12 03:34:18;;;;;;;1.73;1.37;;;3.40;92.70;;;;;;4865927;29;20201;-73
2022/12/12 03:36:50;;;;;;;1.50;1.40;;;3.40;92.30;;;;;;4866044;29;20236;-73
2022/12/12 03:39:25;;;;;;;1.97;1.83;;;3.40;92.80;;;;;;4867172;29;20890;-74
2022/12/12 03:42:07;;;;;;;1.23;1.20;;;3.40;93.10;;;;;;4865984;29;20221;-74
2022/12/12 03:44:39;;;;;;;1.43;1.43;;;3.40;93.40;;;;;;4865993;29;20237;-75
2022/12/12 03:47:28;;;;;;;2.63;2.03;;;3.40;93.40;;;;;;4864702;29;20202;-74
2022/12/12 03:50:01;;;;;;;1.17;1.17;;;3.40;93.60;;;;;;4863525;29;20220;-75
2022/12/12 03:52:34;;;;;;;1.67;1.57;;;3.40;93.70;;;;;;4865100;29;20851;-73
2022/12/12 03:55:29;;;;;;;2.60;1.63;;;3.40;93.80;;;;;;4897622;29;20295;-74
2022/12/12 03:58:10;;;;;;;2.07;1.97;;;3.40;93.90;;;;;;4853500;29;20217;-76
2022/12/12 04:00:36;;;;;;;2.43;2.33;;;3.30;94.00;;;;;;4851886;29;20208;-73
2022/12/12 04:03:31;;;;;;;2.63;2.23;;;3.40;94.20;;;;;;4861406;29;20236;-73
2022/12/12 04:06:28;;;;;;;2.73;2.37;;;3.30;94.80;;;;;;4850896;29;20266;-74
2022/12/12 04:15:45;;;;;;;1.93;1.83;;;3.30;94.80;;;;;;4857177;29;20907;-74
2022/12/12 04:18:35;;;;;;;6.43;1.90;;;3.30;94.70;;;;;;4720371;30;20257;-73
2022/12/12 04:24:15;;;;;;;3.00;2.03;;;3.30;94.20;;;;;;4725192;30;20206;-74
2022/12/12 04:26:54;;;;;;;2.40;2.20;;;3.30;94.30;;;;;;4720162;30;20200;-74
2022/12/12 04:29:26;;;;;;;1.80;1.60;;;3.30;94.10;;;;;;4724316;30;20210;-73
2022/12/12 04:32:19;;;;;;;2.00;1.90;;;3.30;93.90;;;;;;4716148;30;20199;-72
2022/12/12 04:34:52;;;;;;;1.87;1.77;;;3.30;94.00;;;;;;4745811;29;20224;-73
2022/12/12 04:37:24;;;;;;;2.30;1.60;;;3.30;93.80;;;;;;4794491;29;20196;-74
2022/12/12 04:39:53;;;;;;;1.93;1.83;;;3.30;93.80;;;;;;4790115;29;20251;-74
2022/12/12 04:42:23;;;;;;;1.97;1.83;;;3.30;93.70;;;;;;4791131;29;20287;-73
2022/12/12 04:44:52;;;;;;;2.00;1.90;;;3.40;93.80;;;;;;4789468;29;20691;-73
2022/12/12 04:47:20;;;;;;;2.10;1.43;;;3.40;93.80;;;;;;4788516;29;22132;-73
2022/12/12 04:49:49;;;;;;;1.77;1.67;;;3.40;94.00;;;;;;4787033;29;20212;-74
2022/12/12 04:52:18;;;;;;;2.30;2.20;;;3.40;93.90;;;;;;4791290;29;20184;-74
2022/12/12 04:55:05;;;;;;;1.10;1.10;;;3.40;93.90;;;;;;4849992;28;20227;-75
2022/12/12 04:57:46;;;;;;;1.53;1.37;;;3.40;93.70;;;;;;4957584;28;20183;-75
2022/12/12 05:00:13;;;;;;;2.03;1.93;;;3.40;93.80;;;;;;4952043;28;20223;-74
2022/12/12 05:02:43;;;;;;;4.17;2.17;;;3.40;94.00;;;;;;4953284;28;20183;-73
2022/12/12 05:05:11;;;;;;;2.27;1.20;;;3.30;93.60;;;;;;4953971;28;20195;-74
2022/12/12 05:07:49;;;;;;;1.97;1.87;;;3.30;94.40;;;;;;4955902;28;20234;-73
2022/12/12 05:10:17;;;;;;;2.40;2.20;;;3.40;94.40;;;;;;4955521;28;20218;-73
2022/12/12 05:13:01;;;;;;;2.87;2.57;;;3.30;94.50;;;;;;4959851;28;20186;-74
2022/12/12 05:15:28;;;;;;;3.60;1.87;;;3.40;94.50;;;;;;4956036;28;20689;-72
2022/12/12 05:18:04;;;;;;;2.30;2.20;;;3.30;94.50;;;;;;4955691;28;20553;-72
2022/12/12 05:20:30;;;;;;;3.00;2.77;;;3.40;94.70;;;;;;4948632;28;20190;-72
2022/12/12 05:22:56;;;;;;;2.27;2.07;;;3.30;94.90;;;;;;4958827;28;20256;-74
2022/12/12 05:25:21;;;;;;;2.20;2.07;;;3.30;94.80;;;;;;4951999;28;20615;-73
2022/12/12 05:27:47;;;;;;;1.63;1.47;;;3.30;95.00;;;;;;4946477;28;20685;-73
2022/12/12 05:30:13;;;;;;;4.80;1.93;;;3.30;94.80;;;;;;4946859;28;20214;-72
2022/12/12 05:32:39;;;;;;;4.50;1.80;;;3.20;95.50;;;;;;4948009;28;20187;-71
2022/12/12 05:35:06;;;;;;;2.97;2.47;;;3.20;95.70;;;;;;4952417;28;20261;-74
2022/12/12 05:37:31;;;;;;;5.60;3.40;;;3.20;95.80;;;;;;4953509;28;20178;-71
2022/12/12 05:39:57;;;;;;;2.47;2.27;;;3.10;95.80;;;;;;4951822;28;20221;-71
2022/12/12 05:42:23;;;;;;;2.43;1.83;;;3.20;95.50;;;;;;4951889;28;20179;-72
2022/12/12 05:44:48;;;;;;;2.50;2.33;;;3.20;95.30;;;;;;4951122;28;20186;-73
2022/12/12 05:47:14;;;;;;;5.27;2.87;;;3.20;95.30;;;;;;4953061;28;20179;-73
2022/12/12 05:49:40;;;;;;;2.40;2.30;;;3.30;95.50;;;;;;4950172;28;20980;-72
2022/12/12 05:52:05;;;;;;;3.30;2.83;;;3.30;95.50;;;;;;4952941;28;20182;-72
2022/12/12 05:54:32;;;;;;;2.47;2.27;;;3.30;95.70;;;;;;4953296;28;20281;-72
2022/12/12 05:56:57;;;;;;;3.40;2.40;;;3.30;95.80;;;;;;4953272;28;20249;-70
2022/12/12 05:59:23;;;;;;;4.90;3.03;;;3.40;95.50;;;;;;4948824;28;20219;-70
2022/12/12 06:01:49;;;;;;;3.30;2.40;;;3.40;95.80;;;;;;4953798;28;20206;-71
2022/12/12 06:04:14;;;;;;;4.83;2.77;;;3.40;95.80;;;;;;4954652;28;20191;-70
2022/12/12 06:06:40;;;;;;;3.67;2.57;;;3.40;95.60;;;;;;4953845;28;20260;-70
2022/12/12 06:09:06;;;;;;;3.40;2.50;;;3.50;95.70;;;;;;4957192;28;20190;-70
2022/12/12 06:11:31;;;;;;;3.60;2.43;;;3.50;95.50;;;;;;4954639;28;20191;-70
2022/12/12 06:13:57;;;;;;;5.20;2.57;;;3.50;95.50;;;;;;4953035;28;20247;-68
2022/12/12 06:16:22;;;;;;;1.97;1.83;;;3.60;95.70;;;;;;4955551;28;20274;-70
2022/12/12 06:18:52;;;;;;;4.87;3.33;;;3.60;95.50;;;;;;4957047;28;20250;-71
2022/12/12 06:21:19;;;;;;;3.17;2.63;;;3.70;95.70;;;;;;4955800;28;20209;-69
2022/12/12 06:23:45;;;;;;;2.63;2.13;;;3.70;95.50;;;;;;4955761;28;20744;-70
2022/12/12 06:26:13;;;;;;;2.13;2.03;;;3.80;95.60;;;;;;4951181;28;20194;-70
2022/12/12 06:28:39;;;;;;;3.60;3.30;;;3.80;95.70;;;;;;4951391;28;20197;-71
2022/12/12 06:31:05;;;;;;;2.83;2.43;;;3.90;95.50;;;;;;4950779;28;20214;-70
2022/12/12 06:33:34;;;;;;;4.07;3.67;;;3.90;95.40;;;;;;4956073;28;20178;-70
2022/12/12 06:36:22;;;;;;;2.90;2.80;;;4.00;95.70;;;;;;4954123;28;20237;-70
2022/12/12 06:38:52;;;;;;;3.83;3.53;;;4.00;95.40;;;;;;4955096;28;20217;-71
2022/12/12 06:41:19;;;;;;;7.20;4.40;;;4.10;95.80;;;;;;4953323;28;20196;-70
2022/12/12 06:43:45;;;;;;;7.30;3.60;;;4.10;95.60;;;;;;4957116;28;20214;-70
2022/12/12 06:46:17;;;;;;;4.17;3.83;;;4.20;95.60;;;;;;4952559;28;20182;-71
2022/12/12 06:48:44;;;;;;;3.90;3.53;;;4.20;95.60;;;;;;4952326;28;20269;-71
2022/12/12 06:51:13;;;;;;;3.53;3.30;;;4.20;95.40;;;;;;4954908;28;20183;-71
2022/12/12 06:53:39;;;;;;;3.30;3.03;;;4.20;95.30;;;;;;4950656;28;20190;-70
2022/12/12 06:56:09;;;;;;;5.17;2.80;;;4.30;95.20;;;;;;4953749;28;20190;-71
2022/12/12 06:58:36;;;;;;;3.20;2.97;;;4.30;95.20;;;;;;4954170;28;20241;-71
2022/12/12 07:01:02;;;;;;;3.77;3.47;;;4.40;95.40;;;;;;4954423;28;20186;-70
2022/12/12 07:03:28;;;;;;;4.87;3.40;;;4.40;95.30;;;;;;4956844;28;20206;-70
2022/12/12 07:05:54;;;;;;;4.27;3.00;;;4.50;95.30;;;;;;4954414;28;20194;-71
2022/12/12 07:08:20;;;;;;;3.53;3.27;;;4.50;95.30;;;;;;4957188;28;20189;-71
2022/12/12 07:10:45;;;;;;;4.33;3.93;;;4.60;95.30;;;;;;4955642;28;20657;-71
2022/12/12 07:13:11;;;;;;;4.90;3.90;;;4.70;95.40;;;;;;4954857;28;20174;-71
2022/12/12 07:15:45;;;;;;;3.97;3.23;;;4.70;95.20;;;;;;4950245;28;20178;-71
2022/12/12 07:18:11;;;;;;;5.77;4.40;;;4.80;95.10;;;;;;4949958;28;20214;-70
2022/12/12 07:20:44;;;;;;;8.87;4.77;;;4.90;95.30;;;;;;4950796;28;20194;-71
2022/12/12 07:23:11;;;;;;;4.83;4.37;;;5.00;95.30;;;;;;4949624;28;20820;-71
2022/12/12 07:25:40;;;;;;;5.03;4.43;;;5.00;95.10;;;;;;4949657;28;20195;-71
2022/12/12 07:28:07;;;;;;;4.80;4.07;;;5.00;95.20;;;;;;4955824;28;20265;-71
2022/12/12 07:30:33;;;;;;;6.07;4.40;;;5.10;95.20;;;;;;4955186;28;20186;-70
2022/12/12 07:32:59;;;;;;;7.10;4.30;;;5.20;95.20;;;;;;4956750;28;20205;-71
2022/12/12 07:35:25;;;;;;;9.63;5.07;;;5.30;95.50;;;;;;4957271;28;20186;-71
2022/12/12 07:37:51;;;;;;;5.23;4.80;;;5.40;95.50;;;;;;4950228;28;20199;-71
2022/12/12 07:40:17;;;;;;;6.73;6.00;;;5.50;95.70;;;;;;4959774;28;20206;-70
2022/12/12 07:42:42;;;;;;;9.33;6.03;;;5.60;95.50;;;;;;4954089;28;20617;-68
2022/12/12 07:45:08;;;;;;;7.80;5.13;;;5.70;94.70;;;;;;4956293;28;20671;-70
2022/12/12 07:47:34;;;;;;;8.70;5.93;;;5.80;94.50;;;;;;4957485;28;20190;-70
2022/12/12 07:50:00;;;;;;;9.30;5.60;;;5.80;94.60;;;;;;4953824;28;20213;-71
2022/12/12 07:52:25;;;;;;;6.27;5.13;;;5.90;94.80;;;;;;4952154;28;20185;-70
2022/12/12 07:54:51;;;;;;;8.50;6.30;;;6.00;94.80;;;;;;4950439;28;20594;-72
2022/12/12 07:57:17;;;;;;;6.67;5.90;;;6.20;94.50;;;;;;4952474;28;20190;-69
2022/12/12 07:59:42;;;;;;;10.83;7.10;;;6.20;94.40;;;;;;4952590;28;20237;-71
2022/12/12 08:02:09;;;;;;;11.47;6.53;;;6.30;94.10;;;;;;4949798;28;20685;-69
2022/12/12 08:04:35;;;;;;;7.60;6.03;;;6.40;94.00;;;;;;4951835;28;20555;-69
2022/12/12 08:07:01;;;;;;;12.03;7.37;;;6.40;93.40;;;;;;4936040;28;20197;-71
2022/12/12 08:09:26;;;;;;;12.73;7.90;;;6.50;93.50;;;;;;4953748;28;20213;-70
2022/12/12 08:11:57;;;;;;;18.50;6.87;;;6.50;93.40;;;;;;4951748;28;20185;-71
2022/12/12 08:14:24;;;;;;;14.47;7.97;;;6.60;92.90;;;;;;4949126;28;20573;-71
2022/12/12 08:16:49;;;;;;;12.83;8.13;;;6.60;93.00;;;;;;4946892;28;20197;-70
2022/12/12 08:19:15;;;;;;;11.17;7.07;;;6.60;92.90;;;;;;4952126;28;20215;-71
2022/12/12 08:21:42;;;;;;;12.47;8.07;;;6.70;92.50;;;;;;4951437;28;20179;-70
2022/12/12 08:24:11;;;;;;;15.53;8.63;;;6.70;91.40;;;;;;4950798;28;20683;-70
2022/12/12 08:26:37;;;;;;;10.00;6.47;;;6.70;92.20;;;;;;4951623;28;20273;-70
2022/12/12 08:29:04;;;;;;;9.57;6.27;;;6.60;92.40;;;;;;4951358;28;20186;-69
2022/12/12 08:31:30;;;;;;;12.90;7.13;;;6.70;92.70;;;;;;4954350;28;20194;-71
2022/12/12 08:33:55;;;;;;;9.70;7.00;;;6.70;91.70;;;;;;4954125;28;20219;-71
2022/12/12 08:36:24;;;;;;;10.83;7.10;;;6.80;91.60;;;;;;4951401;28;20961;-71
2022/12/12 08:38:51;;;;;;;8.67;6.70;;;6.80;91.50;;;;;;4946675;28;20232;-69
2022/12/12 08:41:18;;;;;;;8.50;6.60;;;6.80;92.00;;;;;;4945471;28;20183;-70
2022/12/12 08:43:44;;;;;;;7.97;6.63;;;6.90;92.00;;;;;;4956669;28;21707;-68
2022/12/12 08:46:11;;;;;;;7.97;6.00;;;6.90;92.40;;;;;;4947059;28;20222;-71
2022/12/12 08:48:37;;;;;;;9.63;6.80;;;7.00;92.20;;;;;;4955184;28;20180;-71
2022/12/12 08:51:02;;;;;;;9.17;6.33;;;7.00;92.00;;;;;;4957331;28;20217;-72
2022/12/12 08:53:28;;;;;;;13.37;5.90;;;7.10;91.90;;;;;;4949433;28;20245;-70
2022/12/12 08:55:54;;;;;;;6.97;5.37;;;7.10;92.20;;;;;;4954358;28;20179;-71
2022/12/12 08:58:20;;;;;;;8.00;5.93;;;7.20;92.40;;;;;;4948843;28;20620;-70
2022/12/12 09:00:46;;;;;;;25.47;6.67;;;7.20;91.90;;;;;;4951403;28;20669;-70
2022/12/12 09:03:11;;;;;;;9.03;6.40;;;7.30;91.60;;;;;;4953775;28;20189;-70
2022/12/12 09:05:45;;;;;;;9.93;6.83;;;7.30;91.80;;;;;;4954393;28;20917;-71
2022/12/12 09:08:12;;;;;;;12.37;7.63;;;7.30;91.60;;;;;;4958220;28;20191;-68
2022/12/12 09:10:38;;;;;;;7.27;6.07;;;7.30;91.30;;;;;;4955359;28;20266;-69
2022/12/12 09:13:06;;;;;;;8.90;6.30;;;7.40;91.30;;;;;;4957599;28;20179;-71
2022/12/12 09:15:33;;;;;;;8.20;6.13;;;7.40;90.70;;;;;;4937010;28;20665;-70
2022/12/12 09:17:59;;;;;;;9.40;7.13;;;7.40;91.00;;;;;;4958881;28;20569;-70
2022/12/12 09:20:24;;;;;;;12.03;6.87;;;7.40;91.00;;;;;;4955666;28;20228;-71
2022/12/12 09:22:50;;;;;;;11.33;7.33;;;7.40;91.10;;;;;;4955541;28;20223;-71
2022/12/12 09:25:16;;;;;;;11.17;7.33;;;7.40;90.80;;;;;;4957341;28;20750;-71
2022/12/12 09:27:42;;;;;;;9.73;6.77;;;7.40;90.70;;;;;;4956201;28;20412;-71
2022/12/12 09:30:08;;;;;;;8.87;6.90;;;7.40;90.20;;;;;;4952432;28;20187;-71
2022/12/12 09:32:34;;;;;;;8.50;6.50;;;7.40;90.40;;;;;;4953983;28;20175;-71
2022/12/12 09:34:59;;;;;;;8.60;7.33;;;7.40;90.50;;;;;;4955966;28;20179;-71
2022/12/12 09:37:26;;;;;;;10.07;6.47;;;7.40;90.40;;;;;;4953826;28;20195;-72
2022/12/12 09:39:52;;;;;;;10.53;6.40;;;7.40;90.70;;;;;;4953049;28;20246;-72
2022/12/12 09:42:31;;;;;;;15.13;8.43;;;7.40;90.80;;;;;;4953276;28;20217;-72
2022/12/12 09:45:06;;;;;;;14.57;8.33;;;7.50;90.10;;;;;;4958217;28;20191;-72
2022/12/12 09:47:47;;;;;;;8.47;5.93;;;7.40;89.70;;;;;;4948624;28;20260;-73
2022/12/12 09:50:35;;;;;;;11.90;7.90;;;7.40;90.20;;;;;;4954818;28;20206;-72
2022/12/12 09:53:05;;;;;;;12.80;6.80;;;7.40;90.30;;;;;;4956847;28;20192;-73
2022/12/12 09:55:49;;;;;;;13.70;7.20;;;7.50;90.70;;;;;;4953924;28;20237;-72
2022/12/12 09:58:23;;;;;;;13.43;8.30;;;7.50;90.80;;;;;;4947829;28;20274;-72
2022/12/12 10:00:56;;;;;;;13.57;7.17;;;7.60;90.60;;;;;;4949399;28;20186;-72
2022/12/12 10:03:54;;;;;;;13.43;8.00;;;7.70;90.30;;;;;;4942387;28;20187;-72
2022/12/12 10:06:21;;;;;;;16.30;8.37;;;7.70;90.10;;;;;;4873742;29;20209;-72
2022/12/12 10:09:01;;;;;;;11.47;7.90;;;7.80;90.50;;;;;;4871814;29;20262;-72
2022/12/12 10:11:50;;;;;;;12.30;7.23;;;7.90;90.50;;;;;;4871196;29;20235;-72
2022/12/12 10:14:43;;;;;;;11.00;7.93;;;7.90;90.20;;;;;;4875903;29;20209;-72
2022/12/12 10:17:30;;;;;;;8.93;7.67;;;7.90;90.30;;;;;;4873673;29;20220;-72
2022/12/12 10:20:03;;;;;;;10.33;6.53;;;8.00;90.60;;;;;;4874271;29;20228;-72
2022/12/12 10:23:17;;;;;;;13.70;7.33;;;8.10;89.80;;;;;;4876766;29;20192;-72
2022/12/12 10:25:55;;;;;;;8.63;6.33;;;8.20;89.80;;;;;;4809444;29;20307;-73
2022/12/12 10:28:23;;;;;;;10.43;6.70;;;8.20;90.40;;;;;;4807619;29;20576;-73
2022/12/12 10:31:16;;;;;;;8.83;6.37;;;8.30;89.80;;;;;;4808368;29;20196;-71
2022/12/12 10:33:45;;;;;;;6.50;5.90;;;8.40;88.60;;;;;;4810114;29;20287;-72
2022/12/12 10:36:47;;;;;;;7.40;6.13;;;8.50;87.80;;;;;;4806741;29;20353;-71
2022/12/12 10:39:15;;;;;;;10.48;7.20;;;8.70;89.30;;;;;;4811154;29;20227;-72
2022/12/12 10:42:10;;;;;;;11.93;8.63;;;9.30;90.80;;;;;;4811966;29;20200;-72
2022/12/12 10:45:14;;;;;;;14.93;9.93;;;9.90;90.10;;;;;;4876041;29;20306;-73
2022/12/12 10:47:40;;;;;;;16.95;11.38;;;10.90;89.20;;;;;;4819794;29;20289;-72
2022/12/12 10:50:09;;;;;;;21.83;14.32;;;11.60;88.20;;;;;;4816169;29;20219;-72
2022/12/12 10:52:35;;;;;;;20.98;13.60;;;12.10;86.00;;;;;;4812773;29;20293;-71
2022/12/12 10:55:00;;;;;;;22.15;13.82;;;12.40;85.10;;;;;;4820420;29;20307;-71
2022/12/12 10:57:32;;;;;;;23.48;14.75;;;12.70;83.20;;;;;;4819992;29;20227;-73
2022/12/12 10:59:58;;;;;;;29.60;17.75;;;13.00;82.90;;;;;;4858075;29;20640;-73
2022/12/12 11:02:29;;;;;;;33.88;17.88;;;13.00;80.00;;;;;;4872248;29;20249;-72
2022/12/12 11:05:07;;;;;;;28.92;17.60;;;13.00;80.40;;;;;;4868667;29;20241;-73
2022/12/12 11:07:42;;;;;;;24.13;17.30;;;12.90;80.00;;;;;;4874474;29;20189;-72
2022/12/12 11:10:27;;;;;;;28.77;17.67;;;12.70;79.20;;;;;;4873690;29;20276;-72
2022/12/12 11:13:15;;;;;;;23.98;15.57;;;12.60;78.40;;;;;;4876847;29;20189;-72
2022/12/12 11:15:51;;;;;;;24.63;16.40;;;12.40;79.70;;;;;;4873436;29;20201;-72
2022/12/12 11:18:20;;;;;;;23.02;16.15;;;12.20;79.50;;;;;;4854735;29;20196;-72
2022/12/12 11:21:02;;;;;;;29.33;16.30;;;12.00;79.70;;;;;;4871696;29;20197;-72
2022/12/12 11:23:30;;;;;;;25.17;15.52;;;11.80;79.30;;;;;;4879386;28;20212;-73
2022/12/12 11:25:58;;;;;;;28.92;15.95;;;11.70;81.10;;;;;;4951353;28;20269;-72
2022/12/12 11:28:29;;;;;;;27.25;15.43;;;11.70;81.90;;;;;;4952948;28;20190;-72
2022/12/12 11:30:56;;;;;;;23.08;15.20;;;11.70;82.50;;;;;;4950101;28;20195;-73
2022/12/12 11:33:37;;;;;;;23.38;15.60;;;11.70;82.50;;;;;;4948366;28;20643;-72
2022/12/12 11:36:05;;;;;;;29.70;14.93;;;11.70;82.70;;;;;;4948132;28;20183;-72
2022/12/12 11:38:48;;;;;;;23.50;14.02;;;11.70;82.30;;;;;;4949927;28;20219;-73
2022/12/12 11:41:14;;;;;;;22.30;13.63;;;11.60;80.90;;;;;;4950794;28;20190;-72
2022/12/12 11:43:49;;;;;;;26.70;13.40;;;11.60;82.20;;;;;;4949422;28;20669;-72
2022/12/12 11:46:18;;;;;;;23.33;13.75;;;11.60;82.00;;;;;;4947658;28;20186;-71
2022/12/12 11:48:53;;;;;;;27.25;14.52;;;11.60;82.40;;;;;;4953336;28;20679;-71
2022/12/12 11:51:39;;;;;;;21.73;14.18;;;11.60;82.60;;;;;;4951778;28;20189;-72
2022/12/12 11:54:12;;;;;;;23.65;13.70;;;11.60;81.80;;;;;;4949170;28;20225;-72
2022/12/12 11:57:13;;;;;;;24.83;14.93;;;11.50;81.90;;;;;;4952281;28;20669;-72
2022/12/12 12:00:05;;;;;;;23.40;14.70;;;11.40;80.10;;;;;;4947554;28;20337;-73
2022/12/12 12:03:09;;;;;;;26.90;15.30;;;11.40;81.80;;;;;;4944130;28;20216;-72
2022/12/12 12:05:34;;;;;;;21.67;13.60;;;11.40;81.90;;;;;;4953163;28;20221;-72
2022/12/12 12:08:28;;;;;;;24.13;14.70;;;11.20;80.40;;;;;;4935935;28;20680;-73
2022/12/12 12:11:14;;;;;;;22.95;14.30;;;11.20;81.40;;;;;;4951527;28;22061;-72
2022/12/12 12:13:57;;;;;;;21.83;13.90;;;11.10;80.60;;;;;;4948149;28;20205;-71
2022/12/12 12:16:23;;;;;;;22.52;14.25;;;11.00;81.10;;;;;;4951931;28;20194;-72
2022/12/12 12:19:27;;;;;;;24.15;14.65;;;10.90;81.70;;;;;;4952743;28;20603;-72
2022/12/12 12:22:14;;;;;;;26.95;14.80;;;10.90;82.60;;;;;;4877002;29;20732;-73
2022/12/12 12:24:54;;;;;;;26.17;12.73;;;10.90;83.20;;;;;;4875980;29;20194;-73
2022/12/12 12:27:23;;;;;;;27.38;12.90;;;11.00;83.20;;;;;;4873380;29;20235;-73
2022/12/12 12:30:22;;;;;;;27.70;14.32;;;11.00;82.90;;;;;;4873315;29;20252;-72
2022/12/12 12:32:57;;;;;;;27.90;14.20;;;11.00;83.10;;;;;;4826249;29;20294;-73
2022/12/12 12:35:53;;;;;;;22.33;13.15;;;10.90;83.00;;;;;;4822728;29;20331;-72
2022/12/12 12:38:54;;;;;;;24.73;14.55;;;11.00;81.20;;;;;;4825912;29;20281;-73
2022/12/12 12:41:38;;;;;;;19.88;13.57;;;10.90;81.90;;;;;;4828505;29;20233;-73
2022/12/12 12:44:17;;;;;;;29.33;14.80;;;10.80;80.70;;;;;;4831087;29;20810;-72
2022/12/12 12:46:57;;;;;;;25.70;14.52;;;10.70;80.00;;;;;;4828687;29;20290;-72
2022/12/12 12:49:32;;;;;;;21.48;13.32;;;10.50;80.90;;;;;;4829663;29;20200;-72
2022/12/12 12:52:09;;;;;;;24.58;13.27;;;10.40;81.90;;;;;;4841458;29;20205;-73
2022/12/12 12:54:47;;;;;;;22.17;14.98;;;10.40;82.30;;;;;;4885489;29;20255;-73
2022/12/12 12:57:33;;;;;;;26.02;14.55;;;10.40;82.00;;;;;;4881980;29;20236;-73
2022/12/12 13:00:16;;;;;;;20.75;12.95;;;10.30;82.30;;;;;;4886019;29;20224;-71
2022/12/12 13:02:50;;;;;;;26.48;13.60;;;10.30;81.90;;;;;;4885823;29;20209;-73
2022/12/12 13:05:44;;;;;;;23.92;12.95;;;10.20;82.30;;;;;;4885256;29;20231;-72
2022/12/12 13:08:25;;;;;;;22.52;12.77;;;10.20;82.40;;;;;;4913139;28;20187;-73
2022/12/12 13:10:58;;;;;;;18.48;12.23;;;10.20;82.80;;;;;;4954150;28;20183;-73
2022/12/12 13:13:30;;;;;;;21.92;12.85;;;10.10;82.90;;;;;;4956206;28;20580;-72
2022/12/12 13:16:11;;;;;;;21.70;12.50;;;10.10;82.50;;;;;;4935228;28;20269;-73
2022/12/12 13:18:38;;;;;;;22.88;13.02;;;10.00;82.60;;;;;;4935110;28;20277;-73
2022/12/12 13:21:19;;;;;;;19.17;11.85;;;10.00;82.40;;;;;;4953679;28;20181;-73
2022/12/12 13:24:00;;;;;;;18.50;11.35;;;9.90;82.40;;;;;;4958775;28;20186;-72
2022/12/12 13:26:39;;;;;;;18.30;10.93;;;9.90;83.00;;;;;;4954951;28;20202;-72
2022/12/12 13:29:31;;;;;;;19.90;10.68;;;9.90;82.20;;;;;;4961506;28;20200;-71
2022/12/12 13:32:28;;;;;;;24.10;10.10;;;9.90;82.30;;;;;;4956011;28;20612;-72
2022/12/12 13:34:58;;;;;;;14.07;9.60;;;9.80;82.80;;;;;;4953736;28;20583;-72